Time;durP1;ratioP1;P1;durP2;ratioP2;P2;SDS_P1;SDS_P2;PMS_P1;PMS_P2;Temp;Humidity;BMP_temperature;BMP_pressure;BME280_temperature;BME280_humidity;BME280_pressure;Samples;Min_cycle;Max_cycle;Signal;HPM_P1;HPM_P2
2023/02/13 00:01:35;;;;;;;;;29.50;29.50;;;;;9.55;63.53;103011.13;5000492;28;45427;-72
2023/02/13 00:04:00;;;;;;;;;29.50;26.25;;;;;9.72;63.36;103042.38;4993258;28;45742;-72
2023/02/13 00:06:26;;;;;;;;;37.75;33.25;;;;;9.56;63.13;103018.25;5019814;28;48343;-72
2023/02/13 00:08:51;;;;;;;;;33.50;28.00;;;;;9.66;63.53;103034.34;5014202;28;45372;-72
2023/02/13 00:11:17;;;;;;;;;37.00;34.00;;;;;9.48;63.71;103008.41;5020171;28;45466;-72
2023/02/13 00:13:42;;;;;;;;;33.75;29.00;;;;;9.63;63.84;103029.88;5017554;28;45595;-72
2023/02/13 00:16:09;;;;;;;;;31.25;29.25;;;;;9.55;63.32;103011.13;5018243;28;46891;-72
2023/02/13 00:18:37;;;;;;;;;31.25;27.75;;;;;9.42;63.33;102999.50;5019838;28;45858;-72
2023/02/13 00:21:09;;;;;;;;;38.75;31.75;;;;;9.66;63.91;103035.22;5013775;28;45471;-72
2023/02/13 00:23:36;;;;;;;;;34.25;29.75;;;;;9.45;63.44;102993.28;5000197;28;45626;-72
2023/02/13 00:26:10;;;;;;;;;34.50;31.25;;;;;9.42;63.59;102993.25;5025264;28;48168;-72
2023/02/13 00:28:36;;;;;;;;;32.50;27.75;;;;;9.53;63.59;103017.34;5014713;28;45838;-72
2023/02/13 00:31:07;;;;;;;;;32.50;27.75;;;;;9.63;63.49;103033.41;5009802;28;45493;-72
2023/02/13 00:33:32;;;;;;;;;27.25;25.50;;;;;9.50;63.42;103012.84;5007527;28;45538;-72
2023/02/13 00:36:10;;;;;;;;;37.50;35.25;;;;;9.41;63.97;102996.81;5006478;28;47136;-72
2023/02/13 00:38:37;;;;;;;;;37.00;32.00;;;;;9.43;63.84;103003.91;5014291;28;45654;-72
2023/02/13 00:41:03;;;;;;;;;30.00;30.00;;;;;9.42;63.64;102994.16;5012470;28;45380;-72
2023/02/13 00:43:29;;;;;;;;;32.75;27.75;;;;;9.36;63.77;102987.88;5007470;28;45626;-72
2023/02/13 00:45:55;;;;;;;;;39.75;35.00;;;;;9.37;63.47;102992.31;5004500;28;45621;-72
2023/02/13 00:48:20;;;;;;;;;35.00;31.50;;;;;9.61;63.79;103040.50;5014270;28;45409;-72
2023/02/13 00:50:46;;;;;;;;;36.00;32.75;;;;;9.33;63.52;102991.41;5012170;28;45422;-72
2023/02/13 00:53:12;;;;;;;;;36.75;31.50;;;;;9.35;63.25;102996.75;5005936;28;45555;-72
2023/02/13 00:55:38;;;;;;;;;32.75;27.00;;;;;9.54;63.62;103033.34;5005707;28;47248;-72
2023/02/13 00:58:04;;;;;;;;;37.25;32.75;;;;;9.30;63.55;102994.03;5012592;28;45295;-72
2023/02/13 01:00:29;;;;;;;;;31.25;29.00;;;;;9.44;63.71;103018.16;5011125;28;45589;-72
2023/02/13 01:02:54;;;;;;;;;33.25;33.25;;;;;9.42;63.54;103017.22;5006084;28;45494;-72
2023/02/13 01:05:20;;;;;;;;;31.75;31.25;;;;;9.51;63.88;103029.78;5012766;28;45663;-72
2023/02/13 01:07:45;;;;;;;;;36.25;31.75;;;;;9.30;63.73;102994.03;5012505;28;45482;-72
2023/02/13 01:10:11;;;;;;;;;34.50;30.00;;;;;9.17;63.44;102982.38;5007135;28;45299;-72
2023/02/13 01:12:36;;;;;;;;;42.00;35.25;;;;;9.23;63.95;102994.88;5012330;28;45652;-72
2023/02/13 01:15:04;;;;;;;;;34.00;30.50;;;;;9.28;64.01;102998.47;5007631;28;46341;-72
2023/02/13 01:17:29;;;;;;;;;34.50;31.25;;;;;9.16;63.57;102980.59;5005756;28;45834;-72
2023/02/13 01:19:54;;;;;;;;;36.50;34.00;;;;;9.14;63.63;102982.34;5009204;28;45383;-72
2023/02/13 01:22:20;;;;;;;;;39.00;32.00;;;;;9.33;63.93;103009.16;5009103;28;45796;-72
2023/02/13 01:24:45;;;;;;;;;33.75;31.00;;;;;9.15;63.90;102978.78;5008341;28;47338;-72
2023/02/13 01:27:11;;;;;;;;;37.25;32.25;;;;;9.18;64.21;102989.47;5013636;28;45380;-71
2023/02/13 01:29:36;;;;;;;;;43.25;35.25;;;;;9.32;63.99;103013.63;5008483;28;45490;-72
2023/02/13 01:32:03;;;;;;;;;37.50;34.50;;;;;9.15;63.96;102992.09;5005091;28;45587;-72
2023/02/13 01:34:30;;;;;;;;;36.25;32.75;;;;;9.19;64.01;103001.94;5011392;28;45427;-72
2023/02/13 01:36:55;;;;;;;;;38.00;33.75;;;;;9.06;64.11;102968.94;5012609;28;45309;-72
2023/02/13 01:39:21;;;;;;;;;37.25;33.25;;;;;9.35;64.18;103020.72;5020223;28;45371;-72
2023/02/13 01:41:46;;;;;;;;;35.00;29.75;;;;;9.12;64.57;102992.09;5002360;28;45530;-72
2023/02/13 01:44:44;;;;;;;;;38.75;36.25;;;;;9.28;64.32;103023.31;5009059;28;46719;-73
2023/02/13 01:47:12;;;;;;;;;36.75;32.50;;;;;9.24;63.94;103025.97;5002606;28;45434;-72
2023/02/13 01:49:40;;;;;;;;;38.75;32.00;;;;;9.31;64.32;103025.16;5000378;28;45497;-72
2023/02/13 01:52:08;;;;;;;;;37.25;34.75;;;;;9.22;64.46;103009.06;5017360;28;45487;-72
2023/02/13 01:54:34;;;;;;;;;37.25;36.25;;;;;9.09;64.40;102995.63;5005784;28;45438;-72
2023/02/13 01:57:04;;;;;;;;;36.00;34.75;;;;;9.16;64.32;102990.38;5009861;28;45348;-72
2023/02/13 01:59:53;;;;;;;;;42.75;37.75;;;;;9.12;64.54;102986.78;5013456;28;45737;-72
2023/02/13 02:02:19;;;;;;;;;40.75;35.75;;;;;9.04;64.33;102975.16;4993224;28;46388;-72
2023/02/13 02:04:47;;;;;;;;;39.25;36.00;;;;;9.08;64.34;102987.59;5000815;28;48089;-72
2023/02/13 02:07:23;;;;;;;;;39.00;35.75;;;;;9.11;64.28;102998.31;5017772;28;45673;-73
2023/02/13 02:09:50;;;;;;;;;36.75;35.75;;;;;9.18;64.67;103013.47;5008455;28;45292;-72
2023/02/13 02:12:28;;;;;;;;;33.50;31.25;;;;;9.25;64.48;103022.41;5011386;28;45862;-72
2023/02/13 02:14:57;;;;;;;;;39.25;36.75;;;;;9.09;64.27;102994.75;5008018;28;45792;-72
2023/02/13 02:17:24;;;;;;;;;40.75;36.00;;;;;9.26;64.24;103025.09;5012855;28;45501;-72
2023/02/13 02:20:06;;;;;;;;;42.25;36.00;;;;;9.01;64.51;102980.44;5008333;28;45298;-72
2023/02/13 02:22:59;;;;;;;;;26.25;23.00;;;;;9.24;64.49;103026.84;5010412;28;45730;-71
2023/02/13 02:25:44;;;;;;;;;37.50;34.50;;;;;9.21;64.29;103023.28;5012439;28;45520;-72
2023/02/13 02:28:28;;;;;;;;;46.25;38.50;;;;;9.18;64.51;103018.78;5003907;28;45754;-72
2023/02/13 02:31:35;;;;;;;;;38.00;35.50;;;;;9.16;64.26;103023.22;5012235;28;45517;-72
2023/02/13 02:34:08;;;;;;;;;43.75;37.00;;;;;8.92;64.32;102981.25;4976353;28;45505;-71
2023/02/13 02:36:40;;;;;;;;;46.00;38.25;;;;;9.01;63.83;103004.41;5011327;28;46534;-71
2023/02/13 02:39:24;;;;;;;;;39.50;36.00;;;;;9.09;64.12;103016.06;5006895;28;45644;-72
2023/02/13 02:42:29;;;;;;;;;43.25;38.25;;;;;9.05;64.40;103003.56;5004436;28;45682;-72
2023/02/13 02:45:10;;;;;;;;;51.50;39.00;;;;;8.84;64.65;102978.50;5005988;28;45262;-72
2023/02/13 02:51:11;;;;;;;;;45.75;37.75;;;;;8.95;64.90;102993.69;5009914;28;45380;-71
2023/02/13 02:53:48;;;;;;;;;48.00;41.25;;;;;9.02;64.77;103011.53;5009420;28;45388;-72
2023/02/13 02:56:26;;;;;;;;;43.75;38.50;;;;;8.85;64.19;102992.69;5012149;28;45534;-72
2023/02/13 03:07:35;;;;;;;;;55.00;41.75;;;;;8.60;64.98;102973.78;5002370;28;45329;-72
2023/02/13 03:24:42;;;;;;;;;46.00;40.50;;;;;8.72;64.71;103026.31;5000677;28;45772;-71
2023/02/13 03:30:05;;;;;;;;;36.25;33.25;;;;;8.48;65.08;102985.19;5011964;28;45548;-72
2023/02/13 03:30:21;;;;;;;;;41.50;37.50;;;;;8.68;65.22;103019.13;5003871;28;45488;-72
2023/02/13 03:33:05;;;;;;;;;50.25;41.50;;;;;8.45;64.77;102982.50;5022566;28;46704;-72
2023/02/13 03:38:36;;;;;;;;;48.00;40.50;;;;;8.56;65.02;102998.59;5008543;28;45438;-72
2023/02/13 03:41:29;;;;;;;;;42.75;35.75;;;;;8.63;64.81;103010.22;5013259;28;45494;-72
2023/02/13 03:44:04;;;;;;;;;37.25;37.00;;;;;8.61;64.91;103014.63;5012667;28;46266;-71
2023/02/13 03:46:34;;;;;;;;;48.25;40.00;;;;;8.43;64.82;102986.00;5013760;28;45442;-72
2023/02/13 03:52:09;;;;;;;;;47.50;37.25;;;;;8.56;65.07;103003.03;5005410;28;45273;-72
2023/02/13 04:00:19;;;;;;;;;46.00;38.75;;;;;8.51;64.86;103008.28;5009761;28;45481;-72
2023/02/13 04:03:13;;;;;;;;;38.50;33.00;;;;;8.48;65.10;103009.13;5010279;28;45335;-72
2023/02/13 04:05:43;;;;;;;;;49.75;39.75;;;;;8.20;64.78;102970.59;4984564;28;46532;-72
2023/02/13 04:08:09;;;;;;;;;44.00;37.00;;;;;8.20;64.67;102972.38;5011296;28;45639;-72
2023/02/13 04:10:43;;;;;;;;;39.50;36.50;;;;;8.22;65.34;102982.16;5015361;28;45496;-72
2023/02/13 04:13:19;;;;;;;;;35.75;33.75;;;;;8.18;65.54;102982.09;5004398;28;45546;-72
2023/02/13 04:16:20;;;;;;;;;45.75;36.50;;;;;8.41;64.93;103017.88;5014722;28;45407;-72
2023/02/13 04:18:48;;;;;;;;;41.75;37.25;;;;;8.15;65.06;102988.25;5011228;28;45557;-72
2023/02/13 04:21:14;;;;;;;;;47.00;40.00;;;;;8.09;65.42;102978.44;5019262;28;45620;-72
2023/02/13 04:23:39;;;;;;;;;41.25;34.25;;;;;8.12;65.18;102983.81;5007026;28;45510;-72
2023/02/13 04:26:09;;;;;;;;;43.75;40.50;;;;;8.34;65.22;103026.69;5018899;28;45390;-71
2023/02/13 04:28:35;;;;;;;;;43.75;37.75;;;;;8.13;64.98;102988.22;5006250;28;45333;-71
2023/02/13 04:31:00;;;;;;;;;39.75;36.75;;;;;8.28;65.18;103010.63;5007374;28;45620;-71
2023/02/13 04:33:25;;;;;;;;;41.50;37.00;;;;;8.26;65.91;103010.59;5014304;28;45542;-72
2023/02/13 04:35:51;;;;;;;;;41.50;34.75;;;;;8.08;65.62;102984.63;5007166;28;45308;-72
2023/02/13 04:38:16;;;;;;;;;41.50;37.50;;;;;8.27;65.84;103009.72;5013718;28;45470;-72
2023/02/13 04:40:41;;;;;;;;;44.50;40.25;;;;;8.14;66.04;102986.50;5013318;28;45347;-72
2023/02/13 04:43:07;;;;;;;;;38.25;35.50;;;;;8.16;65.98;102990.94;5005098;28;45611;-72
2023/02/13 04:45:32;;;;;;;;;47.25;38.75;;;;;8.30;66.27;103022.16;5012832;28;45356;-72
2023/02/13 04:47:58;;;;;;;;;46.00;40.50;;;;;8.15;66.27;102990.91;5013381;28;45379;-72
2023/02/13 04:50:24;;;;;;;;;41.50;35.25;;;;;8.11;66.26;102989.09;5009495;28;45450;-71
2023/02/13 04:52:55;;;;;;;;;37.00;33.50;;;;;8.01;66.32;102961.47;5013579;28;45762;-72
2023/02/13 04:55:22;;;;;;;;;48.50;39.50;;;;;8.10;66.56;102976.66;5010014;28;45534;-72
2023/02/13 04:57:47;;;;;;;;;40.25;36.75;;;;;8.05;66.25;102963.31;5006903;28;45888;-72
2023/02/13 05:00:13;;;;;;;;;39.00;35.50;;;;;8.30;66.26;103003.53;5004774;28;45310;-72
2023/02/13 05:02:38;;;;;;;;;46.75;38.00;;;;;8.16;66.71;102980.31;5003012;28;45549;-72
2023/02/13 05:05:04;;;;;;;;;37.00;35.00;;;;;8.31;66.37;103000.00;5010068;28;46341;-72
2023/02/13 05:07:30;;;;;;;;;34.00;34.00;;;;;8.09;66.76;102959.81;5003009;28;45264;-72
2023/02/13 05:09:55;;;;;;;;;45.00;36.75;;;;;8.26;66.66;102996.41;5006090;28;45454;-72
2023/02/13 05:12:20;;;;;;;;;44.50;36.50;;;;;8.13;66.76;102972.28;5013781;28;45438;-72
2023/02/13 05:14:46;;;;;;;;;44.00;36.25;;;;;8.22;66.41;102992.81;5009919;28;45486;-72
2023/02/13 05:17:11;;;;;;;;;45.75;38.75;;;;;8.18;66.43;102982.09;5014964;28;45416;-72
2023/02/13 05:19:36;;;;;;;;;45.00;37.50;;;;;8.13;66.43;102963.41;5013563;28;45529;-72
2023/02/13 05:24:46;;;;;;;;;44.75;37.75;;;;;8.25;66.19;102989.28;5009961;28;45499;-72
2023/02/13 05:27:11;;;;;;;;;46.75;39.75;;;;;8.31;66.24;102998.25;5012267;28;45661;-72
2023/02/13 05:29:36;;;;;;;;;49.00;40.50;;;;;8.08;65.81;102957.13;5010617;28;45486;-72
2023/02/13 05:32:02;;;;;;;;;43.25;38.50;;;;;8.07;66.00;102955.34;5004019;28;45589;-72
2023/02/13 05:34:29;;;;;;;;;52.25;42.50;;;;;8.12;66.43;102973.16;5009956;28;45459;-72
2023/02/13 05:36:54;;;;;;;;;45.50;40.50;;;;;8.10;66.19;102972.25;5002403;28;45410;-72
2023/02/13 05:39:20;;;;;;;;;46.75;38.50;;;;;8.12;66.22;102974.94;5001696;28;45803;-71
2023/02/13 05:41:47;;;;;;;;;42.50;37.25;;;;;8.14;65.96;102982.06;5001267;28;45472;-71
2023/02/13 05:44:13;;;;;;;;;44.00;38.75;;;;;8.07;66.13;102982.84;5011182;28;45640;-71
2023/02/13 05:46:40;;;;;;;;;41.00;37.50;;;;;8.22;66.17;103003.44;5006553;28;45553;-72
2023/02/13 05:49:06;;;;;;;;;42.00;32.25;;;;;8.03;65.98;102965.03;5009770;28;45566;-72
2023/02/13 05:51:31;;;;;;;;;43.25;37.50;;;;;8.04;65.87;102968.63;5005445;28;45604;-72
2023/02/13 05:53:57;;;;;;;;;46.50;35.75;;;;;8.22;66.39;103014.09;5008313;28;45502;-72
2023/02/13 05:56:23;;;;;;;;;49.75;40.00;;;;;8.02;65.90;102970.34;5013049;28;45469;-72
2023/02/13 05:58:52;;;;;;;;;41.50;38.50;;;;;8.14;65.86;102997.13;4999547;28;45680;-72
2023/02/13 06:01:18;;;;;;;;;47.75;39.75;;;;;7.98;65.94;102970.31;5004027;28;45423;-72
2023/02/13 06:03:43;;;;;;;;;42.50;36.25;;;;;7.95;66.15;102970.28;5011548;28;46645;-72
2023/02/13 06:06:09;;;;;;;;;48.00;41.50;;;;;7.83;65.83;102955.91;5000989;28;45450;-72
2023/02/13 06:08:34;;;;;;;;;45.50;39.50;;;;;7.94;66.07;102975.56;5005058;28;46644;-72
2023/02/13 06:11:00;;;;;;;;;46.00;40.00;;;;;7.95;66.22;102983.56;5011616;28;45407;-72
2023/02/13 06:13:25;;;;;;;;;45.50;36.25;;;;;7.74;66.03;102951.34;4993834;28;46902;-73
2023/02/13 06:15:51;;;;;;;;;36.25;33.25;;;;;7.89;66.19;102982.59;5004975;28;45998;-72
2023/02/13 06:18:16;;;;;;;;;50.00;40.25;;;;;8.07;66.27;103013.84;5011731;28;45557;-72
2023/02/13 06:20:41;;;;;;;;;47.50;37.25;;;;;8.09;66.16;103018.34;5008997;28;45490;-72
2023/02/13 06:23:07;;;;;;;;;53.50;44.00;;;;;7.89;66.02;102985.25;5009158;28;45417;-72
2023/02/13 06:25:36;;;;;;;;;52.50;43.00;;;;;7.85;66.07;102984.31;5013005;28;45863;-72
2023/02/13 06:28:03;;;;;;;;;46.00;39.00;;;;;7.84;66.27;102985.19;5014602;28;45633;-72
2023/02/13 06:30:29;;;;;;;;;50.75;41.25;;;;;7.97;66.49;103020.84;5005799;28;45476;-72
2023/02/13 06:32:55;;;;;;;;;53.75;42.50;;;;;7.97;66.03;103011.09;5007491;28;46459;-72
2023/02/13 06:35:20;;;;;;;;;48.75;41.00;;;;;7.73;65.91;102971.69;5011000;28;45447;-72
2023/02/13 06:37:46;;;;;;;;;46.25;39.75;;;;;7.89;66.35;102998.53;5010527;28;45498;-72
2023/02/13 06:40:13;;;;;;;;;43.00;37.75;;;;;7.87;66.24;102995.88;5003522;28;45508;-71
2023/02/13 06:42:41;;;;;;;;;50.00;42.00;;;;;7.77;66.10;102985.97;5007025;28;48459;-71
2023/02/13 06:45:07;;;;;;;;;45.75;39.25;;;;;7.90;66.01;103019.84;5010725;28;45766;-72
2023/02/13 06:47:32;;;;;;;;;45.25;39.25;;;;;7.79;66.06;102998.41;5007726;28;45503;-72
2023/02/13 06:49:57;;;;;;;;;53.25;42.25;;;;;7.86;66.10;103017.13;5011351;28;45620;-71
2023/02/13 06:52:23;;;;;;;;;49.00;40.50;;;;;7.88;66.35;103018.03;5010571;28;46265;-72
2023/02/13 06:54:48;;;;;;;;;54.50;41.25;;;;;7.72;66.16;102988.53;5004311;28;45611;-72
2023/02/13 06:57:14;;;;;;;;;45.50;40.25;;;;;7.78;66.56;102993.97;5006227;28;45470;-71
2023/02/13 06:59:40;;;;;;;;;47.75;39.50;;;;;7.66;66.40;102982.25;5010821;28;45812;-71
2023/02/13 07:02:05;;;;;;;;;43.00;39.25;;;;;7.54;66.48;102970.53;5010811;28;46428;-72
2023/02/13 07:04:30;;;;;;;;;47.25;40.50;;;;;7.71;66.17;103005.34;5005155;28;45415;-71
2023/02/13 07:06:56;;;;;;;;;51.75;39.25;;;;;7.74;66.46;103005.41;5010695;28;45606;-71
2023/02/13 07:09:25;;;;;;;;;49.75;41.25;;;;;7.93;66.47;103040.25;5001958;28;45400;-71
2023/02/13 07:15:21;;;;;;;;;48.75;38.25;;;;;7.92;66.85;103054.44;4949688;28;47336;-74
2023/02/13 07:17:47;;;;;;;;;43.25;39.00;;;;;7.51;67.06;102978.47;5009588;28;45455;-75
2023/02/13 07:20:14;;;;;;;;;47.25;39.75;;;;;7.61;67.33;103006.09;5010616;28;45478;-74
2023/02/13 07:22:40;;;;;;;;;51.50;41.00;;;;;7.46;67.29;102996.09;5011595;28;46677;-74
2023/02/13 07:25:05;;;;;;;;;45.00;37.00;;;;;7.59;67.00;103022.00;4999879;28;45337;-74
2023/02/13 07:27:31;;;;;;;;;51.00;43.00;;;;;7.47;67.07;102999.63;5006995;28;45373;-74
2023/02/13 07:29:56;;;;;;;;;42.75;38.00;;;;;7.45;66.82;102994.31;5011421;28;45631;-75
2023/02/13 07:32:23;;;;;;;;;45.25;41.25;;;;;7.46;67.37;102989.91;5009437;28;45512;-75
2023/02/13 07:34:49;;;;;;;;;42.50;37.00;;;;;7.56;67.05;103016.63;5000066;28;45415;-74
2023/02/13 07:37:21;;;;;;;;;49.00;40.25;;;;;7.40;66.99;102988.94;5021754;28;45510;-74
2023/02/13 07:39:47;;;;;;;;;47.50;40.50;;;;;7.70;66.62;103035.50;5003741;28;45695;-74
2023/02/13 07:42:12;;;;;;;;;51.25;40.00;;;;;7.54;67.39;103018.38;5004485;28;46976;-74
2023/02/13 07:44:38;;;;;;;;;51.00;39.50;;;;;7.48;67.03;103006.75;5009649;28;45372;-75
2023/02/13 07:47:03;;;;;;;;;50.00;39.75;;;;;7.76;67.31;103053.28;5004185;28;47023;-74
2023/02/13 07:49:29;;;;;;;;;51.25;37.50;;;;;7.61;66.78;103030.00;5011490;28;45434;-75
2023/02/13 07:51:56;;;;;;;;;48.00;40.00;;;;;7.81;66.91;103056.91;5008868;28;45879;-75
2023/02/13 07:54:22;;;;;;;;;55.00;40.00;;;;;7.68;67.67;103045.19;5009093;28;45661;-75
2023/02/13 07:56:47;;;;;;;;;38.75;33.50;;;;;7.77;67.55;103057.75;5016356;28;45444;-75
2023/02/13 07:59:23;;;;;;;;;56.50;43.00;;;;;7.57;67.37;103017.53;5004808;28;45682;-69
2023/02/13 08:01:48;;;;;;;;;44.00;38.25;;;;;7.80;67.52;103057.78;5003873;28;46555;-75
2023/02/13 08:04:14;;;;;;;;;54.50;42.75;;;;;7.86;67.52;103075.63;5000738;28;45473;-72
2023/02/13 08:06:40;;;;;;;;;48.00;39.50;;;;;7.68;67.48;103037.19;5001781;28;45689;-73
2023/02/13 08:11:57;;;;;;;;;48.50;39.50;;;;;7.80;67.49;103063.09;5006388;28;45664;-71
2023/02/13 08:14:24;;;;;;;;;55.25;42.50;;;;;7.65;67.69;103039.84;5002245;28;45694;-72
2023/02/13 08:16:50;;;;;;;;;46.25;39.75;;;;;7.65;67.73;103042.50;5006769;28;45467;-72
2023/02/13 08:19:16;;;;;;;;;47.25;40.25;;;;;7.71;67.75;103044.34;5008039;28;45586;-72
2023/02/13 08:21:42;;;;;;;;;45.50;39.50;;;;;7.71;67.75;103042.56;5005401;28;45507;-72
2023/02/13 08:24:08;;;;;;;;;46.00;41.25;;;;;7.84;67.73;103062.28;5017479;28;45384;-71
2023/02/13 08:26:34;;;;;;;;;51.00;42.00;;;;;7.61;67.52;103022.91;5014629;28;45497;-71
2023/02/13 08:29:00;;;;;;;;;47.00;39.00;;;;;7.66;67.44;103027.44;4998338;28;45486;-72
2023/02/13 08:31:25;;;;;;;;;50.25;43.50;;;;;7.70;67.85;103034.56;5007227;28;48317;-72
2023/02/13 08:33:51;;;;;;;;;49.75;41.50;;;;;7.58;67.47;103022.91;5016531;28;45440;-72
2023/02/13 08:36:18;;;;;;;;;47.00;40.25;;;;;7.68;67.74;103044.28;5008674;28;45486;-72
2023/02/13 08:38:59;;;;;;;;;53.00;41.75;;;;;7.73;68.17;103048.81;5009996;28;46025;-68
2023/02/13 08:41:27;;;;;;;;;48.75;43.25;;;;;7.64;67.36;103040.69;5011402;28;45629;-70
2023/02/13 08:44:04;;;;;;;;;50.25;42.00;;;;;7.54;67.88;103014.84;5013309;28;45891;-68
2023/02/13 08:46:38;;;;;;;;;54.50;43.00;;;;;7.65;68.43;103034.53;5007467;28;45844;-70
2023/02/13 08:49:04;;;;;;;;;47.00;39.25;;;;;7.85;67.78;103061.44;5007069;28;45619;-67
2023/02/13 08:51:29;;;;;;;;;49.75;40.75;;;;;7.77;67.76;103037.38;5006740;28;46217;-68
2023/02/13 08:53:55;;;;;;;;;48.75;40.25;;;;;7.87;67.65;103053.44;5010038;28;45544;-68
2023/02/13 08:56:20;;;;;;;;;49.00;42.00;;;;;7.68;68.10;103025.69;5026786;28;45415;-68
2023/02/13 08:58:49;;;;;;;;;57.75;43.25;;;;;8.00;67.86;103070.50;5011295;28;45646;-67
2023/02/13 09:01:15;;;;;;;;;48.25;40.25;;;;;7.77;67.79;103047.13;5013908;28;45596;-68
2023/02/13 09:03:40;;;;;;;;;52.00;42.25;;;;;7.76;68.07;103048.84;5002781;28;45473;-68
2023/02/13 09:06:06;;;;;;;;;56.00;44.50;;;;;7.77;67.91;103053.31;5009401;28;45485;-67
2023/02/13 09:08:33;;;;;;;;;55.00;44.75;;;;;7.91;68.03;103069.47;5006158;28;45493;-67
2023/02/13 09:11:02;;;;;;;;;50.25;42.75;;;;;7.86;68.19;103055.22;5012748;28;47463;-68
2023/02/13 09:13:35;;;;;;;;;58.00;44.50;;;;;7.98;68.04;103084.69;5007800;28;45534;-66
2023/02/13 09:16:06;;;;;;;;;55.00;42.75;;;;;8.02;68.11;103071.41;5004963;28;45341;-65
2023/02/13 09:22:46;;;;;;;;;;;;;;;;;;;;;
2023/02/13 09:28:37;;;;;;;;;46.50;41.50;;;;;8.09;67.83;103097.25;5005015;22;45480;-79
2023/02/13 09:31:13;;;;;;;;;53.25;44.25;;;;;7.98;68.14;103076.72;4998180;28;45671;-80
2023/02/13 09:33:39;;;;;;;;;58.75;46.50;;;;;8.09;68.52;103092.81;5000037;28;47249;-79
2023/02/13 09:36:12;;;;;;;;;53.00;40.75;;;;;8.14;68.07;103084.94;4997320;28;45514;-80
2023/02/13 09:38:37;;;;;;;;;52.00;43.00;;;;;8.11;68.39;103087.53;4999701;28;45315;-79
2023/02/13 09:41:08;;;;;;;;;47.75;40.50;;;;;8.21;68.31;103086.78;4996844;28;45268;-78
2023/02/13 09:43:39;;;;;;;;;59.00;47.00;;;;;8.27;68.33;103089.56;4981512;28;45591;-77
2023/02/13 09:46:20;;;;;;;;;59.75;46.75;;;;;8.31;68.15;103104.69;4977707;28;45450;-81
2023/02/13 09:48:50;;;;;;;;;51.75;42.50;;;;;8.22;68.19;103069.06;4998792;28;45256;-78
2023/02/13 09:51:19;;;;;;;;;51.50;40.50;;;;;8.38;68.30;103089.69;4994415;28;45351;-78
2023/02/13 09:53:52;;;;;;;;;59.50;43.75;;;;;8.38;67.93;103092.34;4997481;28;45711;-78
2023/02/13 09:56:29;;;;;;;;;56.25;46.00;;;;;8.42;67.79;103101.28;4993791;28;45422;-78
2023/02/13 09:59:14;;;;;;;;;57.25;45.50;;;;;8.37;67.38;103084.34;4994443;28;45481;-78
2023/02/13 10:01:44;;;;;;;;;58.00;47.25;;;;;8.47;67.52;103096.94;4990558;28;45384;-78
2023/02/13 10:04:42;;;;;;;;;60.00;47.25;;;;;8.48;67.65;103096.09;4998680;28;45486;-78
2023/02/13 10:07:29;;;;;;;;;56.00;47.00;;;;;8.46;67.82;103084.53;4985673;28;45892;-78
2023/02/13 10:10:18;;;;;;;;;49.75;42.00;;;;;8.47;67.67;103078.31;4990640;28;45474;-78
2023/02/13 10:13:03;;;;;;;;;59.25;48.50;;;;;8.67;67.92;103097.22;4999836;28;45412;-78
2023/02/13 10:15:40;;;;;;;;;59.25;46.25;;;;;8.64;67.59;103087.44;4983619;28;46273;-78
2023/02/13 10:18:13;;;;;;;;;54.50;43.00;;;;;8.75;67.94;103090.22;4994538;28;46672;-78
2023/02/13 10:20:50;;;;;;;;;51.25;40.50;;;;;8.82;67.79;103092.13;4991354;28;45556;-78
2023/02/13 10:23:26;;;;;;;;;58.00;46.75;;;;;8.90;67.40;103089.53;4986963;28;45340;-77
2023/02/13 10:26:02;;;;;;;;;54.50;46.75;;;;;8.97;67.01;103090.50;4992103;28;45994;-77
2023/02/13 10:28:27;;;;;;;;;52.00;42.25;;;;;8.98;67.32;103093.19;4983882;28;45351;-77
2023/02/13 10:30:56;;;;;;;;;56.00;47.00;;;;;8.97;67.38;103074.50;4989460;28;45466;-76
2023/02/13 10:33:27;;;;;;;;;60.75;50.00;;;;;9.06;66.93;103090.63;4989477;28;45508;-77
2023/02/13 10:36:15;;;;;;;;;60.50;46.75;;;;;9.06;67.23;103080.84;4985762;28;48490;-77
2023/02/13 10:38:58;;;;;;;;;55.00;45.50;;;;;9.07;66.92;103077.31;4995416;28;45568;-77
2023/02/13 10:41:29;;;;;;;;;56.75;47.25;;;;;9.22;66.72;103094.34;4988444;28;45382;-77
2023/02/13 10:44:23;;;;;;;;;57.75;46.00;;;;;9.25;66.84;103094.38;4991566;28;45533;-77
2023/02/13 10:46:54;;;;;;;;;61.00;49.50;;;;;9.29;66.97;103085.53;4982298;28;45640;-77
2023/02/13 10:49:41;;;;;;;;;56.75;46.25;;;;;9.35;66.92;103084.69;5000835;28;45263;-77
2023/02/13 10:52:27;;;;;;;;;53.75;45.50;;;;;9.36;66.75;103078.50;4995717;28;45248;-80
2023/02/13 10:55:18;;;;;;;;;58.50;47.25;;;;;9.41;66.35;103075.00;4990721;28;45527;-79
2023/02/13 10:58:00;;;;;;;;;54.50;42.25;;;;;9.39;66.31;103054.56;4992827;28;45540;-79
2023/02/13 11:00:34;;;;;;;;;57.50;46.25;;;;;9.50;66.03;103066.19;4991452;28;45823;-78
2023/02/13 11:03:00;;;;;;;;;28.50;19.75;;;;;9.49;66.52;103058.16;4989809;28;46977;-80
2023/02/13 11:05:45;;;;;;;;;52.50;43.50;;;;;9.62;66.44;103065.41;4987152;28;45394;-81
2023/02/13 11:08:20;;;;;;;;;60.00;46.75;;;;;9.66;65.82;103063.69;4990614;28;47142;-78
2023/02/13 11:10:46;;;;;;;;;52.50;42.25;;;;;9.70;65.75;103052.16;4990954;28;45706;-79
2023/02/13 11:13:19;;;;;;;;;54.25;39.50;;;;;9.70;65.99;103044.16;5004458;28;45539;-79
2023/02/13 11:16:15;;;;;;;;;50.75;41.25;;;;;9.80;66.15;103040.66;4990054;28;45268;-79
2023/02/13 11:18:45;;;;;;;;;53.50;44.50;;;;;9.87;66.07;103042.47;4971007;28;47350;-79
2023/02/13 11:21:22;;;;;;;;;49.75;42.00;;;;;9.92;65.79;103043.44;4990357;28;45619;-79
2023/02/13 11:23:53;;;;;;;;;55.25;45.00;;;;;9.98;65.68;103039.91;4976886;28;45512;-80
2023/02/13 11:26:34;;;;;;;;;55.75;45.75;;;;;10.01;65.74;103032.81;4996144;28;45392;-80
2023/02/13 11:29:05;;;;;;;;;52.00;41.25;;;;;9.91;65.25;103000.75;4983014;28;45328;-80
2023/02/13 11:31:35;;;;;;;;;51.50;39.75;;;;;10.09;65.28;103023.94;4993048;28;45696;-81
2023/02/13 11:34:20;;;;;;;;;55.75;45.50;;;;;10.18;65.00;103027.56;4978929;28;45518;-81
2023/02/13 11:37:06;;;;;;;;;50.75;42.25;;;;;10.20;64.61;103028.47;4992926;28;45844;-80
2023/02/13 11:39:31;;;;;;;;;55.50;46.00;;;;;10.20;64.55;103022.25;4988117;28;46375;-81
2023/02/13 11:41:58;;;;;;;;;55.50;43.25;;;;;10.26;65.01;103024.06;4989889;28;45452;-80
2023/02/13 11:44:30;;;;;;;;;48.75;41.00;;;;;10.31;64.34;103016.97;4988456;28;45494;-80
2023/02/13 11:46:58;;;;;;;;;54.75;44.00;;;;;10.36;64.25;103021.47;4997379;28;45383;-80
2023/02/13 11:49:26;;;;;;;;;51.25;42.00;;;;;10.31;64.61;103004.53;4992709;28;47393;-81
2023/02/13 11:51:53;;;;;;;;;51.50;42.50;;;;;10.46;64.36;103013.53;4985689;28;45932;-80
2023/02/13 11:54:27;;;;;;;;;50.75;38.25;;;;;10.51;64.08;103018.00;4981463;28;45469;-80
2023/02/13 11:57:16;;;;;;;;;55.25;44.00;;;;;10.51;63.99;103004.66;4979065;28;45613;-80
2023/02/13 11:59:44;;;;;;;;;48.75;38.25;;;;;10.55;64.31;103001.09;4994391;28;46125;-80
2023/02/13 12:02:17;;;;;;;;;51.75;42.25;;;;;10.65;63.54;103012.69;4998328;28;45826;-80
2023/02/13 12:04:43;;;;;;;;;47.25;40.50;;;;;10.67;63.72;103007.38;4999128;28;45365;-81
2023/02/13 12:07:17;;;;;;;;;48.25;40.50;;;;;10.71;63.89;103011.84;5000988;28;45480;-81
2023/02/13 12:09:46;;;;;;;;;53.50;42.25;;;;;10.68;63.33;102991.34;4998462;28;48492;-81
2023/02/13 12:12:21;;;;;;;;;55.75;44.75;;;;;10.73;63.25;102996.72;4981674;28;46019;-80
2023/02/13 12:14:48;;;;;;;;;57.50;46.50;;;;;10.81;62.92;103005.63;4982777;28;45200;-80
2023/02/13 12:17:21;;;;;;;;;57.50;44.50;;;;;10.84;63.44;103000.31;5001905;28;45399;-80
2023/02/13 12:19:49;;;;;;;;;56.00;45.25;;;;;10.83;63.16;102990.50;4994481;28;46173;-80
2023/02/13 12:22:20;;;;;;;;;49.25;37.50;;;;;10.92;63.25;102995.84;5001171;28;45312;-81
2023/02/13 12:24:57;;;;;;;;;52.50;42.75;;;;;10.94;62.57;103002.13;4984931;28;45572;-81
2023/02/13 12:28:01;;;;;;;;;34.00;32.75;;;;;10.97;62.57;102994.97;4993179;28;46023;-81